createdAt,value
2022-08-22T00:01:36.963Z,80.42
2022-08-22T00:06:58.488Z,81.55
2022-08-22T00:12:19.935Z,80.77
2022-08-22T00:17:41.205Z,80.65
2022-08-22T00:22:55.770Z,80.05
2022-08-22T00:28:08.283Z,80.32
2022-08-22T00:33:29.026Z,79.97
2022-08-22T00:38:43.774Z,79.59
2022-08-22T00:44:41.751Z,79.51
2022-08-22T00:50:38.180Z,78.78
2022-08-22T00:56:19.006Z,78.58
2022-08-22T01:01:32.482Z,78.17
2022-08-22T01:06:54.786Z,78.41
2022-08-22T01:12:34.487Z,78.88
2022-08-22T01:18:24.262Z,78.88
2022-08-22T01:24:24.309Z,79.85
2022-08-22T01:30:30.305Z,82.45
2022-08-22T01:36:10.783Z,84.19
2022-08-22T01:41:44.912Z,85.68
2022-08-22T01:47:00.468Z,87.32
2022-08-22T01:52:19.667Z,89.97
2022-08-22T01:57:26.161Z,91.61
2022-08-22T02:02:51.571Z,92.38
2022-08-22T02:08:04.851Z,90.96
2022-08-22T02:13:26.171Z,90.72
2022-08-22T02:18:51.534Z,90.93
2022-08-22T02:24:15.603Z,92.00
2022-08-22T02:29:30.896Z,94.42
2022-08-22T02:34:43.541Z,99.95
2022-08-22T02:39:57.043Z,100.00
2022-08-22T02:45:22.137Z,100.00
2022-08-22T02:50:39.283Z,100.00
2022-08-22T02:56:00.708Z,100.00
2022-08-22T03:01:40.926Z,100.00
2022-08-22T03:07:04.083Z,100.00
2022-08-22T03:12:23.664Z,100.00
2022-08-22T03:17:36.075Z,100.00
2022-08-22T03:22:53.247Z,100.00
2022-08-22T03:28:07.470Z,100.00
2022-08-22T03:33:21.625Z,100.00
2022-08-22T03:38:39.782Z,100.00
2022-08-22T03:44:27.268Z,100.00
2022-08-22T03:50:38.495Z,100.00
2022-08-22T03:56:44.089Z,100.00
2022-08-22T04:02:26.206Z,100.00
2022-08-22T04:08:38.287Z,100.00
2022-08-22T04:14:32.430Z,100.00
2022-08-22T04:20:08.366Z,100.00
2022-08-22T04:25:23.155Z,100.00
2022-08-22T04:30:43.743Z,100.00
2022-08-22T04:36:03.529Z,100.00
2022-08-22T04:41:16.747Z,100.00
2022-08-22T04:46:37.228Z,100.00
2022-08-22T04:51:52.174Z,100.00
2022-08-22T04:57:18.137Z,100.00
2022-08-22T05:02:27.610Z,100.00
2022-08-22T05:07:40.833Z,100.00
2022-08-22T05:12:53.961Z,100.00
2022-08-22T05:18:07.608Z,100.00
2022-08-22T05:23:20.778Z,100.00
2022-08-22T05:28:36.152Z,100.00
2022-08-22T05:33:45.847Z,100.00
2022-08-22T05:38:58.025Z,97.43
2022-08-22T05:44:04.498Z,96.16
2022-08-22T05:49:20.111Z,95.60
2022-08-22T05:54:34.638Z,95.20
2022-08-22T05:59:44.882Z,96.20
2022-08-22T06:04:55.046Z,95.93
2022-08-22T06:10:25.904Z,94.64
2022-08-22T06:15:47.786Z,93.77
2022-08-22T06:20:59.602Z,92.19
2022-08-22T06:26:20.864Z,88.86
2022-08-22T06:31:33.235Z,85.92
2022-08-22T06:36:42.401Z,83.20
2022-08-22T06:41:55.040Z,78.18
2022-08-22T06:47:05.875Z,79.27
2022-08-22T06:52:23.556Z,78.70
2022-08-22T06:57:35.989Z,78.39
2022-08-22T07:02:45.023Z,77.57
2022-08-22T07:07:51.004Z,77.38
2022-08-22T07:12:58.852Z,70.44
2022-08-22T07:18:08.238Z,60.85
2022-08-22T07:23:31.513Z,55.21
2022-08-22T07:28:51.520Z,57.71
2022-08-22T07:34:25.875Z,53.88
2022-08-22T07:39:38.790Z,47.73
2022-08-22T07:45:02.925Z,42.94
2022-08-22T07:50:14.351Z,42.19
2022-08-22T07:55:23.702Z,39.32
2022-08-22T08:00:31.528Z,38.54
2022-08-22T08:05:39.618Z,37.14
2022-08-22T08:10:44.583Z,36.70
2022-08-22T08:15:52.554Z,35.63
2022-08-22T08:21:03.442Z,33.88
2022-08-22T08:26:12.661Z,33.86
2022-08-22T08:31:26.027Z,31.97
2022-08-22T08:36:52.467Z,31.32
2022-08-22T08:42:59.458Z,29.01
2022-08-22T08:48:35.874Z,28.77
2022-08-22T08:54:20.103Z,28.14
2022-08-22T08:59:44.470Z,27.15
2022-08-22T09:05:50.243Z,25.68
2022-08-22T09:11:32.219Z,26.50
2022-08-22T09:17:02.845Z,25.42
2022-08-22T09:22:50.009Z,24.88
2022-08-22T09:28:03.057Z,24.51
2022-08-22T09:33:17.631Z,23.47
2022-08-22T09:38:49.705Z,22.64
2022-08-22T09:44:15.440Z,22.18
2022-08-22T09:49:32.891Z,21.24
2022-08-22T09:54:49.101Z,20.80
2022-08-22T10:00:22.120Z,20.22
2022-08-22T10:05:44.029Z,20.15
2022-08-22T10:11:12.838Z,18.79
2022-08-22T10:16:28.312Z,18.42
2022-08-22T10:21:43.188Z,17.83
2022-08-22T10:26:55.743Z,17.62
2022-08-22T10:32:17.586Z,17.49
2022-08-22T10:37:31.614Z,16.36
2022-08-22T10:42:47.785Z,16.05
2022-08-22T10:48:23.411Z,16.48
2022-08-22T10:53:46.470Z,16.33
2022-08-22T10:59:01.166Z,15.69
2022-08-22T11:04:42.197Z,15.50
2022-08-22T11:10:00.855Z,15.28
2022-08-22T11:15:28.313Z,15.55
2022-08-22T11:20:54.818Z,16.86
2022-08-22T11:26:30.098Z,15.81
2022-08-22T11:32:06.515Z,15.30
2022-08-22T11:37:42.962Z,14.66
2022-08-22T11:43:00.247Z,11.20
2022-08-22T11:48:22.069Z,11.32
2022-08-22T11:53:38.519Z,11.58
2022-08-22T11:58:59.735Z,11.97
2022-08-22T12:04:21.872Z,11.10
2022-08-22T12:09:42.646Z,10.80
2022-08-22T12:14:58.056Z,10.99
2022-08-22T12:20:28.351Z,10.49
2022-08-22T12:26:05.017Z,11.27
2022-08-22T12:31:31.868Z,11.70
2022-08-22T12:37:09.262Z,10.79
2022-08-22T12:42:54.509Z,10.86
2022-08-22T12:48:19.653Z,10.99
2022-08-22T12:54:14.538Z,9.80
2022-08-22T12:59:27.450Z,9.04
2022-08-22T13:04:36.614Z,9.63
2022-08-22T13:09:52.347Z,9.61
2022-08-22T13:15:03.691Z,9.48
2022-08-22T13:20:21.051Z,10.57
2022-08-22T13:25:30.786Z,10.54
2022-08-22T13:30:41.131Z,11.55
2022-08-22T13:35:51.871Z,11.00
2022-08-22T13:41:00.804Z,14.71
2022-08-22T13:46:10.960Z,14.27
2022-08-22T13:51:27.345Z,12.28
2022-08-22T13:56:50.393Z,12.85
2022-08-22T14:02:04.916Z,13.81
2022-08-22T14:07:32.670Z,13.09
2022-08-22T14:13:24.057Z,11.62
2022-08-22T14:18:35.843Z,10.71
2022-08-22T14:23:40.541Z,11.14
2022-08-22T14:28:46.812Z,9.56
2022-08-22T14:33:58.322Z,9.38
2022-08-22T14:39:11.843Z,9.51
2022-08-22T14:44:24.359Z,9.02
2022-08-22T14:49:47.864Z,9.35
2022-08-22T14:55:12.205Z,8.65
2022-08-22T15:00:32.210Z,9.02
2022-08-22T15:05:46.392Z,9.24
2022-08-22T15:11:05.237Z,10.33
2022-08-22T15:16:22.962Z,11.85
2022-08-22T15:21:32.735Z,11.15
2022-08-22T15:26:50.374Z,11.32
2022-08-22T15:32:01.451Z,12.43
2022-08-22T15:37:32.414Z,12.07
2022-08-22T15:42:42.614Z,11.52
2022-08-22T15:47:54.390Z,11.25
2022-08-22T15:53:18.146Z,10.47
2022-08-22T15:58:25.270Z,10.79
2022-08-22T16:03:35.358Z,11.50
2022-08-22T16:08:52.076Z,11.05
2022-08-22T16:14:25.246Z,11.15
2022-08-22T16:19:39.731Z,11.31
2022-08-22T16:25:10.163Z,11.72
2022-08-22T16:30:16.824Z,11.66
2022-08-22T16:36:23.766Z,11.94
2022-08-22T16:41:41.465Z,14.07
2022-08-22T16:46:48.664Z,15.13
2022-08-22T16:52:48.835Z,18.94
2022-08-22T16:58:15.525Z,20.59
2022-08-22T17:03:37.709Z,23.19
2022-08-22T17:08:58.336Z,25.08
2022-08-22T17:14:20.879Z,25.67
2022-08-22T17:19:46.587Z,27.09
2022-08-22T17:25:13.867Z,28.16
2022-08-22T17:30:30.284Z,29.83
2022-08-22T17:35:55.094Z,30.10
2022-08-22T17:41:13.078Z,30.50
2022-08-22T17:46:36.809Z,31.95
2022-08-22T17:51:52.509Z,32.34
2022-08-22T17:57:06.359Z,33.29
2022-08-22T18:02:20.272Z,33.73
2022-08-22T18:07:45.885Z,34.25
2022-08-22T18:13:06.677Z,35.74
2022-08-22T18:18:31.439Z,37.51
2022-08-22T18:23:43.945Z,38.42
2022-08-22T18:28:55.778Z,39.34
2022-08-22T18:34:15.196Z,40.56
2022-08-22T18:39:29.403Z,41.31
2022-08-22T18:44:37.602Z,42.27
2022-08-22T18:49:55.015Z,42.96
2022-08-22T18:55:40.308Z,43.91
2022-08-22T19:01:05.404Z,44.80
2022-08-22T19:06:45.937Z,46.04
2022-08-22T19:12:04.669Z,46.67
2022-08-22T19:17:55.435Z,49.86
2022-08-22T19:23:47.429Z,52.26
2022-08-22T19:28:55.640Z,53.84
2022-08-22T19:34:40.257Z,55.52
2022-08-22T19:39:56.103Z,57.01
2022-08-22T19:45:26.744Z,57.85
2022-08-22T19:50:36.649Z,58.09
2022-08-22T19:56:05.547Z,60.32
2022-08-22T20:01:46.528Z,59.95
2022-08-22T20:07:15.963Z,63.12
2022-08-22T20:20:17.725Z,68.30
2022-08-22T20:26:03.363Z,70.30
2022-08-22T20:31:33.343Z,69.73
2022-08-22T20:37:35.551Z,72.11
2022-08-22T20:43:11.626Z,72.30
2022-08-22T20:49:14.194Z,72.03
2022-08-22T20:55:39.433Z,71.56
2022-08-22T21:01:22.884Z,70.39
2022-08-22T21:07:03.303Z,70.61
2022-08-22T21:12:12.252Z,72.05
2022-08-22T21:17:24.939Z,72.13
2022-08-22T21:22:33.884Z,72.92
2022-08-22T21:27:39.816Z,72.97
2022-08-22T21:32:55.045Z,73.22
2022-08-22T21:38:02.719Z,73.99
2022-08-22T21:43:13.439Z,74.44
2022-08-22T21:48:40.639Z,76.19
2022-08-22T21:53:44.823Z,77.29
2022-08-22T21:58:50.734Z,79.04
2022-08-22T22:03:56.183Z,81.73
2022-08-22T22:09:00.346Z,83.07
2022-08-22T22:14:06.439Z,82.44
2022-08-22T22:19:10.903Z,79.59
2022-08-22T22:24:15.187Z,77.47
2022-08-22T22:29:21.072Z,77.11
2022-08-22T22:34:25.691Z,76.69
2022-08-22T22:39:30.107Z,78.11
2022-08-22T22:44:35.780Z,79.34
2022-08-22T22:49:40.326Z,80.94
2022-08-22T22:54:45.595Z,81.39
2022-08-22T22:59:51.912Z,82.72
2022-08-22T23:04:58.303Z,84.78
2022-08-22T23:10:05.067Z,87.30
2022-08-22T23:15:12.846Z,88.94
2022-08-22T23:20:17.186Z,91.03
2022-08-22T23:25:21.586Z,91.00
2022-08-22T23:30:27.276Z,91.75
2022-08-22T23:35:31.487Z,93.74
2022-08-22T23:40:35.747Z,96.01
2022-08-22T23:45:41.329Z,96.67
2022-08-22T23:50:45.699Z,97.51
2022-08-22T23:55:50.089Z,98.21
